createdAt,value
2018-03-03T00:00:03.343Z,44.90
2018-03-03T00:02:31.206Z,44.83
2018-03-03T00:04:58.662Z,55.80
2018-03-03T00:07:26.239Z,45.50
2018-03-03T00:09:54.655Z,46.88
2018-03-03T00:12:22.077Z,45.80
2018-03-03T00:14:49.472Z,44.63
2018-03-03T00:17:16.936Z,44.20
2018-03-03T00:19:44.323Z,46.60
2018-03-03T00:22:19.336Z,45.87
2018-03-03T00:24:47.268Z,47.65
2018-03-03T00:27:14.678Z,46.83
2018-03-03T00:29:42.090Z,46.63
2018-03-03T00:32:09.478Z,45.00
2018-03-03T00:34:36.952Z,44.40
2018-03-03T00:37:04.314Z,48.00
2018-03-03T00:39:31.756Z,46.83
2018-03-03T00:41:59.145Z,45.58
2018-03-03T00:44:26.570Z,44.57
2018-03-03T00:46:55.155Z,45.65
2018-03-03T00:49:22.580Z,47.30
2018-03-03T00:51:50.036Z,47.50
2018-03-03T00:54:17.442Z,44.47
2018-03-03T00:56:44.832Z,45.30
2018-03-03T00:59:12.240Z,47.93
2018-03-03T01:01:39.636Z,48.70
2018-03-03T01:04:07.192Z,48.00
2018-03-03T01:06:34.696Z,45.97
2018-03-03T01:09:02.172Z,48.15
2018-03-03T01:11:29.551Z,46.77
2018-03-03T01:13:56.941Z,48.22
2018-03-03T01:16:24.352Z,51.20
2018-03-03T01:18:51.830Z,46.78
2018-03-03T01:21:19.224Z,50.17
2018-03-03T01:23:47.014Z,49.67
2018-03-03T01:26:14.432Z,49.83
2018-03-03T01:28:41.846Z,50.70
2018-03-03T01:31:09.215Z,47.50
2018-03-03T01:33:36.633Z,48.17
2018-03-03T01:36:04.010Z,47.50
2018-03-03T01:38:31.668Z,47.57
2018-03-03T01:40:59.085Z,48.53
2018-03-03T01:43:26.583Z,48.72
2018-03-03T01:45:54.936Z,49.03
2018-03-03T01:48:22.339Z,47.35
2018-03-03T01:50:49.757Z,46.23
2018-03-03T01:53:17.234Z,48.20
2018-03-03T01:55:44.625Z,47.27
2018-03-03T01:58:12.074Z,49.53
2018-03-03T02:00:41.017Z,45.23
2018-03-03T02:03:09.281Z,51.33
2018-03-03T02:05:44.280Z,50.23
2018-03-03T02:08:11.888Z,50.10
2018-03-03T02:10:39.284Z,53.20
2018-03-03T02:13:06.897Z,48.70
2018-03-03T02:15:34.374Z,48.75
2018-03-03T02:18:01.769Z,53.20
2018-03-03T02:20:29.156Z,52.80
2018-03-03T02:22:56.542Z,52.00
2018-03-03T02:25:23.944Z,51.27
2018-03-03T02:27:51.349Z,53.08
2018-03-03T02:30:18.849Z,50.10
2018-03-03T02:32:46.261Z,53.03
2018-03-03T02:35:13.684Z,52.47
2018-03-03T02:37:41.079Z,53.22
2018-03-03T02:40:08.501Z,53.23
2018-03-03T02:42:35.895Z,51.90
2018-03-03T02:45:03.275Z,49.60
2018-03-03T02:47:30.756Z,54.37
2018-03-03T02:49:58.160Z,53.10
2018-03-03T02:52:25.574Z,51.30
2018-03-03T02:54:53.079Z,52.00
2018-03-03T02:57:20.488Z,54.00
2018-03-03T02:59:48.483Z,52.80
2018-03-03T03:02:15.914Z,50.63
2018-03-03T03:04:43.363Z,52.72
2018-03-03T03:07:10.805Z,52.80
2018-03-03T03:09:38.218Z,54.53
2018-03-03T03:12:05.627Z,52.97
2018-03-03T03:14:33.219Z,53.00
2018-03-03T03:17:00.628Z,52.83
2018-03-03T03:19:28.040Z,50.05
2018-03-03T03:21:55.468Z,52.13
2018-03-03T03:24:22.872Z,52.63
2018-03-03T03:26:50.300Z,52.17
2018-03-03T03:29:17.734Z,50.90
2018-03-03T03:31:45.120Z,50.87
2018-03-03T03:34:12.647Z,52.90
2018-03-03T03:36:40.022Z,50.60
2018-03-03T03:39:07.408Z,49.05
2018-03-03T03:41:34.813Z,52.77
2018-03-03T03:44:02.212Z,53.20
2018-03-03T03:46:29.721Z,54.37
2018-03-03T03:48:57.135Z,52.90
2018-03-03T03:51:24.535Z,51.67
2018-03-03T03:53:51.914Z,53.03
2018-03-03T03:56:19.308Z,54.23
2018-03-03T03:58:46.704Z,52.07
2018-03-03T04:01:14.113Z,50.78
2018-03-03T04:03:41.508Z,53.87
2018-03-03T04:06:08.887Z,52.17
2018-03-03T04:08:36.277Z,53.07
2018-03-03T04:11:03.686Z,52.50
2018-03-03T04:13:31.086Z,56.03
2018-03-03T04:15:58.475Z,53.70
2018-03-03T04:18:25.868Z,53.00
2018-03-03T04:20:53.300Z,51.93
2018-03-03T04:23:20.698Z,50.33
2018-03-03T04:25:48.873Z,52.60
2018-03-03T04:28:16.257Z,52.30
2018-03-03T04:30:43.669Z,50.03
2018-03-03T04:33:11.061Z,50.57
2018-03-03T04:35:38.569Z,51.50
2018-03-03T04:38:05.953Z,53.43
2018-03-03T04:40:33.399Z,52.80
2018-03-03T04:43:01.306Z,52.85
2018-03-03T04:45:28.879Z,52.85
2018-03-03T04:47:56.251Z,51.95
2018-03-03T04:50:23.637Z,52.47
2018-03-03T04:52:51.020Z,51.60
2018-03-03T04:55:18.413Z,53.43
2018-03-03T04:57:45.856Z,51.87
2018-03-03T05:00:19.180Z,52.67
2018-03-03T05:16:25.856Z,50.78
2018-03-03T05:32:26.552Z,49.93
2018-03-03T05:34:59.508Z,51.13
2018-03-03T05:37:29.947Z,52.90
2018-03-03T05:40:03.002Z,52.08
2018-03-03T05:42:36.168Z,53.70
2018-03-03T05:45:09.333Z,53.37
2018-03-03T05:47:42.277Z,54.27
2018-03-03T05:50:15.418Z,54.30
2018-03-03T05:52:53.752Z,53.37
2018-03-03T05:55:39.922Z,56.10
2018-03-03T05:58:22.119Z,53.00
2018-03-03T06:14:14.411Z,49.57
2018-03-03T06:16:41.884Z,50.97
2018-03-03T06:19:09.384Z,51.70
2018-03-03T06:21:37.000Z,54.93
2018-03-03T06:24:04.401Z,54.08
2018-03-03T06:26:31.784Z,55.77
2018-03-03T06:28:59.183Z,54.58
2018-03-03T06:31:26.648Z,54.72
2018-03-03T06:33:54.709Z,57.55
2018-03-03T06:36:22.095Z,55.42
2018-03-03T06:38:49.662Z,53.40
2018-03-03T06:41:17.071Z,55.30
2018-03-03T06:43:44.520Z,53.20
2018-03-03T06:46:12.208Z,55.33
2018-03-03T06:48:39.864Z,53.07
2018-03-03T06:51:07.257Z,56.67
2018-03-03T06:53:34.775Z,55.05
2018-03-03T06:56:02.218Z,52.27
2018-03-03T06:58:30.111Z,53.40
2018-03-03T07:00:57.510Z,55.80
2018-03-03T07:03:25.010Z,55.20
2018-03-03T07:05:52.656Z,54.40
2018-03-03T07:08:20.368Z,55.33
2018-03-03T07:10:47.774Z,54.80
2018-03-03T07:13:15.368Z,55.90
2018-03-03T07:15:42.763Z,57.20
2018-03-03T07:18:10.297Z,55.97
2018-03-03T07:20:37.849Z,55.20
2018-03-03T07:23:05.396Z,54.47
2018-03-03T07:25:33.197Z,55.23
2018-03-03T07:28:00.647Z,55.15
2018-03-03T07:30:28.202Z,55.70
2018-03-03T07:32:55.706Z,53.50
2018-03-03T07:35:23.514Z,54.93
2018-03-03T07:37:51.216Z,56.03
2018-03-03T07:40:18.656Z,54.50
2018-03-03T07:42:46.597Z,55.10
2018-03-03T07:45:14.041Z,55.67
2018-03-03T07:47:41.549Z,56.53
2018-03-03T07:50:08.996Z,53.37
2018-03-03T07:52:36.453Z,56.57
2018-03-03T07:55:03.863Z,52.80
2018-03-03T07:57:31.253Z,55.50
2018-03-03T07:59:58.800Z,56.40
2018-03-03T08:02:26.201Z,57.40
2018-03-03T08:04:53.627Z,58.08
2018-03-03T08:07:21.020Z,58.70
2018-03-03T08:09:48.869Z,52.72
2018-03-03T08:12:16.606Z,54.67
2018-03-03T08:14:44.045Z,57.53
2018-03-03T08:17:11.454Z,59.50
2018-03-03T08:19:38.845Z,56.63
2018-03-03T08:22:06.722Z,54.23
2018-03-03T08:24:34.234Z,54.60
2018-03-03T08:27:01.809Z,55.37
2018-03-03T08:29:29.278Z,57.92
2018-03-03T08:31:56.815Z,57.43
2018-03-03T08:34:24.219Z,56.57
2018-03-03T08:36:51.611Z,55.93
2018-03-03T08:39:19.049Z,57.27
2018-03-03T08:41:46.588Z,57.03
2018-03-03T08:44:13.993Z,58.20
2018-03-03T08:46:41.424Z,55.93
2018-03-03T08:49:08.930Z,56.10
2018-03-03T08:51:40.509Z,54.00
2018-03-03T08:54:07.921Z,54.65
2018-03-03T08:56:35.309Z,55.63
2018-03-03T08:59:02.730Z,51.77
2018-03-03T09:01:30.269Z,55.87
2018-03-03T09:03:57.722Z,55.17
2018-03-03T09:06:25.135Z,55.77
2018-03-03T09:08:52.602Z,55.30
2018-03-03T09:11:20.000Z,55.03
2018-03-03T09:13:47.396Z,55.57
2018-03-03T09:16:14.798Z,57.93
2018-03-03T09:18:42.267Z,56.43
2018-03-03T09:21:10.861Z,53.73
2018-03-03T09:23:38.253Z,54.20
2018-03-03T09:26:05.673Z,54.60
2018-03-03T09:28:33.121Z,57.00
2018-03-03T09:31:00.868Z,54.43
2018-03-03T09:33:28.393Z,51.28
2018-03-03T09:35:55.848Z,52.02
2018-03-03T09:38:24.256Z,54.10
2018-03-03T09:40:51.673Z,53.77
2018-03-03T09:43:19.176Z,56.90
2018-03-03T09:45:46.736Z,53.30
2018-03-03T09:48:14.124Z,52.80
2018-03-03T09:50:41.512Z,55.47
2018-03-03T09:53:09.069Z,52.73
2018-03-03T09:55:36.526Z,52.93
2018-03-03T09:58:04.248Z,53.73
2018-03-03T10:00:31.667Z,54.13
2018-03-03T10:02:59.190Z,52.60
2018-03-03T10:05:26.596Z,52.03
2018-03-03T10:07:54.078Z,50.92
2018-03-03T10:10:21.469Z,53.67
2018-03-03T10:12:49.254Z,49.53
2018-03-03T10:15:16.787Z,48.77
2018-03-03T10:17:44.165Z,50.92
2018-03-03T10:20:11.915Z,52.57
2018-03-03T10:22:40.222Z,48.55
2018-03-03T10:25:07.951Z,51.53
2018-03-03T10:27:35.389Z,49.83
2018-03-03T10:30:03.141Z,50.10
2018-03-03T10:32:30.531Z,51.30
2018-03-03T10:34:58.034Z,48.63
2018-03-03T10:37:25.702Z,48.40
2018-03-03T10:39:53.117Z,49.30
2018-03-03T10:42:20.568Z,49.70
2018-03-03T10:44:48.036Z,47.23
2018-03-03T10:47:15.459Z,49.15
2018-03-03T10:49:42.868Z,50.97
2018-03-03T10:52:10.462Z,49.30
2018-03-03T10:54:37.944Z,47.17
2018-03-03T10:57:05.411Z,50.33
2018-03-03T10:59:32.872Z,47.17
2018-03-03T11:02:00.277Z,48.83
2018-03-03T11:04:27.706Z,45.50
2018-03-03T11:06:55.116Z,44.60
2018-03-03T11:09:22.712Z,41.60
2018-03-03T11:11:50.160Z,42.40
2018-03-03T11:14:17.942Z,41.30
2018-03-03T11:16:45.372Z,42.10
2018-03-03T11:19:12.777Z,40.83
2018-03-03T11:21:40.247Z,42.87
2018-03-03T11:24:07.639Z,45.77
2018-03-03T11:26:35.041Z,45.23
2018-03-03T11:29:02.432Z,44.20
2018-03-03T11:31:29.841Z,47.53
2018-03-03T11:33:57.699Z,47.05
2018-03-03T11:36:25.123Z,49.03
2018-03-03T11:38:52.579Z,46.83
2018-03-03T11:41:19.973Z,45.10
2018-03-03T11:43:47.361Z,48.77
2018-03-03T11:46:14.845Z,48.57
2018-03-03T11:48:42.214Z,47.27
2018-03-03T11:51:09.627Z,47.73
2018-03-03T11:53:37.239Z,49.13
2018-03-03T11:56:05.780Z,49.03
2018-03-03T11:58:33.560Z,48.30
2018-03-03T12:01:00.972Z,48.90
2018-03-03T12:03:28.594Z,45.47
2018-03-03T12:05:55.993Z,47.20
2018-03-03T12:08:23.395Z,49.20
2018-03-03T12:10:50.891Z,49.10
2018-03-03T12:13:18.344Z,47.07
2018-03-03T12:15:45.748Z,45.72
2018-03-03T12:18:13.244Z,50.03
2018-03-03T12:20:40.696Z,49.30
2018-03-03T12:23:08.299Z,48.13
2018-03-03T12:25:35.681Z,45.92
2018-03-03T12:28:03.085Z,48.00
2018-03-03T12:30:30.502Z,47.10
2018-03-03T12:32:57.921Z,45.70
2018-03-03T12:35:25.328Z,43.40
2018-03-03T12:37:52.744Z,44.10
2018-03-03T12:40:20.160Z,44.43
2018-03-03T12:42:47.628Z,44.47
2018-03-03T12:45:15.070Z,48.50
2018-03-03T12:47:42.457Z,44.50
2018-03-03T12:50:09.870Z,45.75
2018-03-03T12:52:37.522Z,42.80
2018-03-03T12:55:05.027Z,43.00
2018-03-03T12:57:32.482Z,45.60
2018-03-03T12:59:59.888Z,43.87
2018-03-03T13:02:27.325Z,46.92
2018-03-03T13:04:54.726Z,46.80
2018-03-03T13:07:22.172Z,48.95
2018-03-03T13:09:50.178Z,48.15
2018-03-03T13:12:17.778Z,47.30
2018-03-03T13:14:45.672Z,49.00
2018-03-03T13:17:13.204Z,47.45
2018-03-03T13:19:40.621Z,48.50
2018-03-03T13:22:08.296Z,45.83
2018-03-03T13:24:35.651Z,48.23
2018-03-03T13:27:05.384Z,48.35
2018-03-03T13:29:32.961Z,46.27
2018-03-03T13:32:00.365Z,47.70
2018-03-03T13:34:27.805Z,47.67
2018-03-03T13:36:55.233Z,57.28
2018-03-03T13:39:22.738Z,48.90
2018-03-03T13:41:50.920Z,50.73
2018-03-03T13:44:18.479Z,49.60
2018-03-03T13:46:46.125Z,47.47
2018-03-03T13:49:13.571Z,51.07
2018-03-03T13:51:40.988Z,48.87
2018-03-03T13:54:08.419Z,46.50
2018-03-03T13:56:35.880Z,46.60
2018-03-03T13:59:03.292Z,49.70
2018-03-03T14:01:30.700Z,47.77
2018-03-03T14:03:58.132Z,49.60
2018-03-03T14:06:25.766Z,48.27
2018-03-03T14:08:53.318Z,50.17
2018-03-03T14:11:20.792Z,49.10
2018-03-03T14:13:48.217Z,47.97
2018-03-03T14:16:15.706Z,49.77
2018-03-03T14:18:43.112Z,47.80
2018-03-03T14:21:10.641Z,50.83
2018-03-03T14:23:38.057Z,50.95
2018-03-03T14:26:05.497Z,50.00
2018-03-03T14:28:33.028Z,50.08
2018-03-03T14:31:00.436Z,49.63
2018-03-03T14:33:27.838Z,49.90
2018-03-03T14:35:55.298Z,51.85
2018-03-03T14:38:22.676Z,51.80
2018-03-03T14:40:51.395Z,49.25
2018-03-03T14:43:18.922Z,51.23
2018-03-03T14:45:47.252Z,49.67
2018-03-03T14:48:14.689Z,50.47
2018-03-03T14:50:42.105Z,48.57
2018-03-03T14:53:10.035Z,47.23
2018-03-03T14:55:37.425Z,46.92
2018-03-03T14:58:04.847Z,50.37
2018-03-03T15:00:32.251Z,49.80
2018-03-03T15:02:59.693Z,50.70
2018-03-03T15:05:27.097Z,46.85
2018-03-03T15:07:54.538Z,48.42
2018-03-03T15:10:21.942Z,48.43
2018-03-03T15:12:49.327Z,50.23
2018-03-03T15:15:16.725Z,49.10
2018-03-03T15:17:44.125Z,48.37
2018-03-03T15:20:11.520Z,49.60
2018-03-03T15:22:39.131Z,47.07
2018-03-03T15:25:06.525Z,51.08
2018-03-03T15:27:33.909Z,48.00
2018-03-03T15:30:01.408Z,49.03
2018-03-03T15:32:28.822Z,49.17
2018-03-03T15:34:56.249Z,49.63
2018-03-03T15:37:23.792Z,50.65
2018-03-03T15:39:51.210Z,50.00
2018-03-03T15:42:18.815Z,51.15
2018-03-03T15:44:46.232Z,50.37
2018-03-03T15:47:13.604Z,48.37
2018-03-03T15:49:41.027Z,48.90
2018-03-03T15:52:08.404Z,52.27
2018-03-03T15:54:35.823Z,47.20
2018-03-03T15:57:03.214Z,49.83
2018-03-03T15:59:30.600Z,47.80
2018-03-03T16:01:58.112Z,48.50
2018-03-03T16:04:25.495Z,48.63
2018-03-03T16:06:52.956Z,47.47
2018-03-03T16:09:20.874Z,50.97
2018-03-03T16:11:48.310Z,50.30
2018-03-03T16:14:15.704Z,51.10
2018-03-03T16:16:44.204Z,48.23
2018-03-03T16:19:11.586Z,49.90
2018-03-03T16:21:39.016Z,49.15
2018-03-03T16:24:06.386Z,48.75
2018-03-03T16:26:33.807Z,46.28
2018-03-03T16:29:01.208Z,50.22
2018-03-03T16:31:28.625Z,50.50
2018-03-03T16:33:56.050Z,49.45
2018-03-03T16:36:23.428Z,52.40
2018-03-03T16:38:51.004Z,51.42
2018-03-03T16:41:18.401Z,50.27
2018-03-03T16:43:45.985Z,52.70
2018-03-03T16:46:13.481Z,50.93
2018-03-03T16:48:41.143Z,53.13
2018-03-03T16:51:08.545Z,52.08
2018-03-03T16:53:35.941Z,51.25
2018-03-03T16:56:03.324Z,53.07
2018-03-03T16:58:30.907Z,52.00
2018-03-03T17:00:58.320Z,53.28
2018-03-03T17:03:25.727Z,53.00
2018-03-03T17:05:53.133Z,52.43
2018-03-03T17:08:21.209Z,53.17
2018-03-03T17:10:48.606Z,52.00
2018-03-03T17:13:16.012Z,54.05
2018-03-03T17:15:43.534Z,54.60
2018-03-03T17:18:10.996Z,50.87
2018-03-03T17:20:38.382Z,53.30
2018-03-03T17:23:05.778Z,54.67
2018-03-03T17:25:33.186Z,52.70
2018-03-03T17:28:00.630Z,54.77
2018-03-03T17:30:28.003Z,52.20
2018-03-03T17:32:55.489Z,54.00
2018-03-03T17:35:22.917Z,55.07
2018-03-03T17:37:52.221Z,52.42
2018-03-03T17:40:19.763Z,56.07
2018-03-03T17:42:47.167Z,54.90
2018-03-03T17:45:14.576Z,52.97
2018-03-03T17:47:42.489Z,53.77
2018-03-03T17:50:09.900Z,55.47
2018-03-03T17:52:37.290Z,53.63
2018-03-03T17:55:04.693Z,52.95
2018-03-03T17:57:32.088Z,53.45
2018-03-03T17:59:59.600Z,54.35
2018-03-03T18:02:27.002Z,54.07
2018-03-03T18:04:54.443Z,54.80
2018-03-03T18:07:22.121Z,55.03
2018-03-03T18:09:49.594Z,53.77
2018-03-03T18:12:17.996Z,54.00
2018-03-03T18:14:45.902Z,52.80
2018-03-03T18:17:13.524Z,54.45
2018-03-03T18:19:40.934Z,52.63
2018-03-03T18:22:09.203Z,52.40
2018-03-03T18:24:36.711Z,55.85
2018-03-03T18:27:04.094Z,54.87
2018-03-03T18:29:31.496Z,53.87
2018-03-03T18:31:58.890Z,54.17
2018-03-03T18:34:26.278Z,55.17
2018-03-03T18:36:53.676Z,57.53
2018-03-03T18:39:21.678Z,55.58
2018-03-03T18:41:49.014Z,54.10
2018-03-03T18:44:16.631Z,53.83
2018-03-03T18:46:44.119Z,55.40
2018-03-03T18:49:11.558Z,55.67
2018-03-03T18:51:38.993Z,56.90
2018-03-03T18:54:06.440Z,53.80
2018-03-03T18:56:33.833Z,54.57
2018-03-03T18:59:01.481Z,58.23
2018-03-03T19:01:29.171Z,56.93
2018-03-03T19:03:56.665Z,55.88
2018-03-03T19:06:24.061Z,54.23
2018-03-03T19:08:51.669Z,55.03
2018-03-03T19:11:19.045Z,56.40
2018-03-03T19:13:46.570Z,55.60
2018-03-03T19:16:13.987Z,54.60
2018-03-03T19:18:41.365Z,54.90
2018-03-03T19:21:08.920Z,55.27
2018-03-03T19:23:36.473Z,55.90
2018-03-03T19:26:03.939Z,54.13
2018-03-03T19:28:31.341Z,55.70
2018-03-03T19:30:58.743Z,55.13
2018-03-03T19:33:26.150Z,55.20
2018-03-03T19:35:53.537Z,54.67
2018-03-03T19:38:21.846Z,55.80
2018-03-03T19:40:49.226Z,54.90
2018-03-03T19:43:16.793Z,56.77
2018-03-03T19:45:44.228Z,56.43
2018-03-03T19:48:11.695Z,55.60
2018-03-03T19:50:39.120Z,52.40
2018-03-03T19:53:06.521Z,56.25
2018-03-03T19:55:33.968Z,57.47
2018-03-03T19:58:01.500Z,55.10
2018-03-03T20:00:28.887Z,55.63
2018-03-03T20:02:56.324Z,56.95
2018-03-03T20:05:23.877Z,57.63
2018-03-03T20:07:51.882Z,56.57
2018-03-03T20:10:19.333Z,55.00
2018-03-03T20:12:46.765Z,55.33
2018-03-03T20:15:14.137Z,55.77
2018-03-03T20:17:41.568Z,55.50
2018-03-03T20:20:08.963Z,58.50
2018-03-03T20:22:36.364Z,56.97
2018-03-03T20:25:03.782Z,56.80
2018-03-03T20:27:31.198Z,58.17
2018-03-03T20:29:58.581Z,56.80
2018-03-03T20:32:25.980Z,57.33
2018-03-03T20:34:54.314Z,55.60
2018-03-03T20:37:22.002Z,56.90
2018-03-03T20:39:49.412Z,57.27
2018-03-03T20:42:19.856Z,56.17
2018-03-03T20:44:47.362Z,55.57
2018-03-03T20:47:15.253Z,55.53
2018-03-03T20:49:42.695Z,54.57
2018-03-03T20:52:10.265Z,54.07
2018-03-03T20:54:37.776Z,55.30
2018-03-03T20:57:05.537Z,54.53
2018-03-03T20:59:33.048Z,54.80
2018-03-03T21:02:00.509Z,57.23
2018-03-03T21:04:27.904Z,54.53
2018-03-03T21:06:55.276Z,55.80
2018-03-03T21:09:22.672Z,55.97
2018-03-03T21:12:05.844Z,58.10
2018-03-03T21:14:33.371Z,58.13
2018-03-03T21:17:00.827Z,53.90
2018-03-03T21:19:28.219Z,58.17
2018-03-03T21:21:55.637Z,58.63
2018-03-03T21:24:23.036Z,56.40
2018-03-03T21:26:50.429Z,55.50
2018-03-03T21:29:17.853Z,55.20
2018-03-03T21:31:45.221Z,57.63
2018-03-03T21:34:12.704Z,57.93
2018-03-03T21:36:40.107Z,61.00
2018-03-03T21:39:07.497Z,56.30
2018-03-03T21:41:35.681Z,57.50
2018-03-03T21:44:03.150Z,60.87
2018-03-03T21:46:30.544Z,56.40
2018-03-03T21:48:57.988Z,57.67
2018-03-03T21:51:33.192Z,57.10
2018-03-03T21:54:01.106Z,56.57
2018-03-03T21:56:28.571Z,56.67
2018-03-03T21:58:55.943Z,57.77
2018-03-03T22:01:23.326Z,56.93
2018-03-03T22:03:50.752Z,55.50
2018-03-03T22:06:20.927Z,55.00
2018-03-03T22:08:48.402Z,58.38
2018-03-03T22:11:15.797Z,57.00
2018-03-03T22:13:43.185Z,56.13
2018-03-03T22:16:10.577Z,57.10
2018-03-03T22:18:37.981Z,61.30
2018-03-03T22:21:05.376Z,55.90
2018-03-03T22:23:32.761Z,56.50
2018-03-03T22:26:00.159Z,55.35
2018-03-03T22:28:27.589Z,57.67
2018-03-03T22:30:54.986Z,56.20
2018-03-03T22:33:22.630Z,54.80
2018-03-03T22:35:50.032Z,56.80
2018-03-03T22:38:17.471Z,56.25
2018-03-03T22:40:44.841Z,57.10
2018-03-03T22:43:12.224Z,56.50
2018-03-03T22:45:39.609Z,58.00
2018-03-03T22:48:07.014Z,57.65
2018-03-03T22:50:34.428Z,55.85
2018-03-03T22:53:01.819Z,56.43
2018-03-03T22:55:29.249Z,55.58
2018-03-03T22:57:56.695Z,57.30
2018-03-03T23:00:24.088Z,58.50
2018-03-03T23:02:51.502Z,56.83
2018-03-03T23:05:18.925Z,58.80
2018-03-03T23:07:46.357Z,57.67
2018-03-03T23:10:13.863Z,59.13
2018-03-03T23:12:41.272Z,56.60
2018-03-03T23:15:08.681Z,56.33
2018-03-03T23:17:36.119Z,55.80
2018-03-03T23:20:03.502Z,57.67
2018-03-03T23:22:30.900Z,61.13
2018-03-03T23:24:58.361Z,57.50
2018-03-03T23:27:25.745Z,56.83
2018-03-03T23:29:53.152Z,56.20
2018-03-03T23:32:20.520Z,56.00
2018-03-03T23:34:47.917Z,56.97
2018-03-03T23:37:15.291Z,57.37
2018-03-03T23:39:49.029Z,56.90
2018-03-03T23:42:24.476Z,60.90
2018-03-03T23:44:52.868Z,57.55
2018-03-03T23:47:20.273Z,59.30
2018-03-03T23:49:47.745Z,61.23
2018-03-03T23:52:15.136Z,59.10
2018-03-03T23:54:42.530Z,58.10
2018-03-03T23:57:10.408Z,58.33
2018-03-03T23:59:37.969Z,56.75
